createdAt,value
2023-04-21T00:01:29.772Z,8.80
2023-04-21T00:03:56.890Z,9.03
2023-04-21T00:06:24.000Z,9.53
2023-04-21T00:08:51.027Z,8.53
2023-04-21T00:11:18.434Z,8.30
2023-04-21T00:13:45.786Z,8.57
2023-04-21T00:16:14.043Z,9.40
2023-04-21T00:18:41.260Z,8.80
2023-04-21T00:21:08.173Z,8.27
2023-04-21T00:23:35.215Z,8.70
2023-04-21T00:26:02.816Z,8.53
2023-04-21T00:28:30.264Z,8.40
2023-04-21T00:30:57.213Z,7.67
2023-04-21T00:33:26.491Z,8.70
2023-04-21T00:35:54.429Z,7.97
2023-04-21T00:38:21.362Z,8.43
2023-04-21T00:40:48.300Z,8.60
2023-04-21T00:43:15.238Z,8.60
2023-04-21T00:45:45.257Z,9.67
2023-04-21T00:48:12.258Z,9.13
2023-04-21T00:50:41.193Z,8.70
2023-04-21T00:53:09.570Z,8.53
2023-04-21T00:55:36.894Z,9.03
2023-04-21T00:58:04.165Z,8.57
2023-04-21T01:00:31.626Z,8.60
2023-04-21T01:03:01.545Z,9.27
2023-04-21T01:05:28.583Z,8.60
2023-04-21T01:07:56.931Z,9.07
2023-04-21T01:10:24.124Z,8.67
2023-04-21T01:12:51.046Z,9.60
2023-04-21T01:15:18.127Z,8.63
2023-04-21T01:17:45.429Z,8.90
2023-04-21T01:20:15.241Z,8.40
2023-04-21T01:22:44.885Z,9.50
2023-04-21T01:25:11.871Z,8.80
2023-04-21T01:27:38.777Z,8.57
2023-04-21T01:30:09.890Z,8.13
2023-04-21T01:32:37.078Z,9.47
2023-04-21T01:35:06.438Z,8.60
2023-04-21T01:37:34.201Z,9.00
2023-04-21T01:40:07.203Z,9.17
2023-04-21T01:42:36.648Z,8.50
2023-04-21T01:45:04.600Z,8.50
2023-04-21T01:47:32.052Z,8.50
2023-04-21T01:50:00.218Z,8.83
2023-04-21T01:52:27.210Z,8.17
2023-04-21T01:54:54.942Z,8.83
2023-04-21T01:57:23.222Z,8.50
2023-04-21T01:59:50.145Z,8.60
2023-04-21T02:02:17.065Z,9.00
2023-04-21T02:04:44.003Z,8.13
2023-04-21T02:07:10.855Z,8.37
2023-04-21T02:09:37.727Z,9.60
2023-04-21T02:12:05.433Z,8.83
2023-04-21T02:14:33.715Z,9.10
2023-04-21T02:17:03.303Z,7.97
2023-04-21T02:19:30.612Z,9.03
2023-04-21T02:21:57.472Z,9.43
2023-04-21T02:24:24.447Z,7.77
2023-04-21T02:26:51.428Z,7.77
2023-04-21T02:29:18.578Z,7.93
2023-04-21T02:31:57.892Z,9.10
2023-04-21T02:34:30.125Z,9.30
2023-04-21T02:36:57.048Z,8.90
2023-04-21T02:39:23.939Z,8.53
2023-04-21T02:41:50.871Z,8.07
2023-04-21T02:44:17.982Z,8.50
2023-04-21T02:46:46.294Z,9.57
2023-04-21T02:49:13.433Z,8.83
2023-04-21T02:51:40.540Z,8.53
2023-04-21T02:54:07.510Z,8.47
2023-04-21T02:56:34.656Z,7.80
2023-04-21T02:59:01.612Z,8.50
2023-04-21T03:01:28.492Z,8.80
2023-04-21T03:03:56.911Z,9.17
2023-04-21T03:06:24.126Z,8.30
2023-04-21T03:08:52.043Z,8.27
2023-04-21T03:11:18.935Z,7.20
2023-04-21T03:13:46.031Z,8.63
2023-04-21T03:16:13.448Z,7.87
2023-04-21T03:18:40.527Z,8.03
2023-04-21T03:21:08.723Z,8.03
2023-04-21T03:23:35.697Z,7.63
2023-04-21T03:26:07.165Z,8.03
2023-04-21T03:28:34.188Z,8.77
2023-04-21T03:31:01.113Z,7.87
2023-04-21T03:33:28.095Z,8.03
2023-04-21T03:35:54.957Z,8.43
2023-04-21T03:38:23.148Z,8.83
2023-04-21T03:40:51.017Z,8.23
2023-04-21T03:43:18.013Z,8.67
2023-04-21T03:45:44.973Z,8.10
2023-04-21T03:48:12.015Z,8.47
2023-04-21T03:50:39.169Z,8.20
2023-04-21T03:53:06.096Z,8.63
2023-04-21T03:55:34.282Z,8.53
2023-04-21T03:58:01.130Z,7.93
2023-04-21T04:00:28.007Z,8.30
2023-04-21T04:02:55.069Z,7.93
2023-04-21T04:05:22.354Z,8.30
2023-04-21T04:07:49.314Z,8.27
2023-04-21T04:10:16.326Z,8.23
2023-04-21T04:12:44.576Z,8.30
2023-04-21T04:15:11.759Z,8.27
2023-04-21T04:17:38.656Z,7.67
2023-04-21T04:20:08.245Z,7.70
2023-04-21T04:22:35.370Z,9.30
2023-04-21T04:25:02.662Z,7.97
2023-04-21T04:27:29.714Z,8.07
2023-04-21T04:29:57.908Z,9.10
2023-04-21T04:32:28.249Z,8.00
2023-04-21T04:34:58.779Z,8.57
2023-04-21T04:37:25.664Z,8.70
2023-04-21T04:39:53.927Z,8.37
2023-04-21T04:42:20.967Z,7.73
2023-04-21T04:44:48.043Z,6.83
2023-04-21T04:47:16.316Z,7.43
2023-04-21T04:49:43.389Z,8.17
2023-04-21T04:52:10.408Z,7.63
2023-04-21T04:54:37.322Z,7.83
2023-04-21T04:57:04.440Z,9.03
2023-04-21T04:59:31.477Z,8.00
2023-04-21T05:01:58.514Z,7.53
2023-04-21T05:04:27.376Z,8.23
2023-04-21T05:06:54.706Z,8.03
2023-04-21T05:09:21.752Z,8.23
2023-04-21T05:11:48.838Z,8.70
2023-04-21T05:14:16.059Z,8.20
2023-04-21T05:16:43.750Z,8.60
2023-04-21T05:19:10.776Z,8.57
2023-04-21T05:21:38.945Z,8.67
2023-04-21T05:24:06.072Z,8.33
2023-04-21T05:26:33.012Z,8.37
2023-04-21T05:28:59.988Z,7.60
2023-04-21T05:31:27.353Z,8.10
2023-04-21T05:33:54.360Z,7.90
2023-04-21T05:36:21.284Z,9.00
2023-04-21T05:38:49.555Z,8.60
2023-04-21T05:41:16.448Z,8.57
2023-04-21T05:43:43.611Z,9.50
2023-04-21T05:46:11.501Z,8.73
2023-04-21T05:48:38.625Z,9.10
2023-04-21T05:51:10.360Z,8.87
2023-04-21T05:53:37.541Z,9.20
2023-04-21T05:56:08.694Z,8.90
2023-04-21T05:58:36.013Z,7.90
2023-04-21T06:01:03.322Z,7.73
2023-04-21T06:03:32.007Z,8.53
2023-04-21T06:06:01.278Z,9.33
2023-04-21T06:08:28.217Z,8.23
2023-04-21T06:10:55.466Z,9.40
2023-04-21T06:13:23.885Z,9.40
2023-04-21T06:15:50.791Z,8.87
2023-04-21T06:18:17.777Z,9.10
2023-04-21T06:20:50.866Z,8.13
2023-04-21T06:23:18.152Z,8.67
2023-04-21T06:25:45.371Z,8.90
2023-04-21T06:28:12.721Z,8.53
2023-04-21T06:30:41.077Z,8.17
2023-04-21T06:33:08.084Z,8.63
2023-04-21T06:35:35.071Z,8.80
2023-04-21T06:38:02.472Z,8.30
2023-04-21T06:40:29.391Z,8.27
2023-04-21T06:42:56.288Z,8.37
2023-04-21T06:45:23.524Z,8.40
2023-04-21T06:47:51.802Z,8.03
2023-04-21T06:50:18.904Z,9.10
2023-04-21T06:52:45.782Z,10.17
2023-04-21T06:55:12.898Z,8.97
2023-04-21T06:57:39.800Z,8.03
2023-04-21T07:00:08.473Z,8.93
2023-04-21T07:02:35.726Z,9.60
2023-04-21T07:05:04.766Z,8.87
2023-04-21T07:07:31.698Z,7.90
2023-04-21T07:09:58.658Z,8.83
2023-04-21T07:12:25.692Z,7.90
2023-04-21T07:14:52.589Z,8.07
2023-04-21T07:17:19.480Z,8.43
2023-04-21T07:19:46.401Z,7.87
2023-04-21T07:22:14.757Z,7.90
2023-04-21T07:24:41.656Z,8.47
2023-04-21T07:27:08.547Z,8.57
2023-04-21T07:29:35.552Z,8.17
2023-04-21T07:32:02.544Z,8.13
2023-04-21T07:34:29.431Z,7.47
2023-04-21T07:36:56.917Z,7.87
2023-04-21T07:39:25.178Z,7.23
2023-04-21T07:41:52.087Z,7.80
2023-04-21T07:44:18.976Z,7.83
2023-04-21T07:46:46.336Z,7.53
2023-04-21T07:49:13.891Z,7.53
2023-04-21T07:51:41.370Z,8.00
2023-04-21T07:54:08.328Z,9.60
2023-04-21T07:56:36.570Z,7.70
2023-04-21T07:59:03.567Z,8.07
2023-04-21T08:01:30.654Z,9.47
2023-04-21T08:03:57.657Z,7.77
2023-04-21T08:06:24.891Z,7.00
2023-04-21T08:08:57.544Z,7.53
2023-04-21T08:11:28.522Z,7.27
2023-04-21T08:14:00.107Z,7.30
2023-04-21T08:16:27.163Z,7.33
2023-04-21T08:18:54.233Z,7.00
2023-04-21T08:21:21.254Z,7.50
2023-04-21T08:23:48.162Z,6.90
2023-04-21T08:26:15.585Z,6.57
2023-04-21T08:28:42.518Z,9.47
2023-04-21T08:31:11.025Z,8.10
2023-04-21T08:33:49.905Z,6.80
2023-04-21T08:36:29.542Z,7.40
2023-04-21T08:39:04.071Z,6.23
2023-04-21T08:41:31.585Z,7.33
2023-04-21T08:43:59.658Z,7.03
2023-04-21T08:46:32.389Z,6.80
2023-04-21T08:49:00.210Z,7.00
2023-04-21T08:51:28.684Z,7.07
2023-04-21T08:53:55.918Z,6.40
2023-04-21T08:56:26.198Z,7.20
2023-04-21T08:58:53.967Z,6.33
2023-04-21T09:01:21.429Z,6.90
2023-04-21T09:03:49.913Z,6.70
2023-04-21T09:06:20.646Z,7.00
2023-04-21T09:08:57.713Z,8.20
2023-04-21T09:11:54.765Z,6.93
2023-04-21T09:14:21.862Z,7.07
2023-04-21T09:17:01.154Z,6.43
2023-04-21T09:19:30.592Z,7.30
2023-04-21T09:22:00.429Z,6.75
2023-04-21T09:24:27.867Z,6.47
2023-04-21T09:26:55.225Z,5.93
2023-04-21T09:29:23.984Z,6.30
2023-04-21T09:31:52.678Z,6.25
2023-04-21T09:34:24.735Z,6.00
2023-04-21T09:37:02.517Z,5.68
2023-04-21T09:39:43.087Z,5.95
2023-04-21T09:42:13.849Z,5.90
2023-04-21T09:44:53.298Z,5.60
2023-04-21T09:47:27.274Z,6.05
2023-04-21T09:49:56.273Z,6.15
2023-04-21T09:52:28.895Z,6.07
2023-04-21T09:55:04.433Z,5.63
2023-04-21T09:57:37.656Z,5.80
2023-04-21T10:00:09.668Z,5.90
2023-04-21T10:02:45.126Z,5.40
2023-04-21T10:05:12.908Z,6.35
2023-04-21T10:07:41.512Z,5.60
2023-04-21T10:10:18.857Z,6.15
2023-04-21T10:12:46.372Z,6.05
2023-04-21T10:15:31.584Z,5.68
2023-04-21T10:18:17.047Z,5.68
2023-04-21T10:20:56.083Z,6.03
2023-04-21T10:23:30.409Z,6.28
2023-04-21T10:26:12.809Z,5.25
2023-04-21T10:28:47.314Z,5.30
2023-04-21T10:31:20.313Z,5.72
2023-04-21T10:34:13.327Z,6.15
2023-04-21T10:36:51.722Z,6.22
2023-04-21T10:39:35.699Z,5.38
2023-04-21T10:42:37.040Z,5.57
2023-04-21T10:45:12.102Z,5.30
2023-04-21T10:47:49.695Z,5.38
2023-04-21T10:50:23.874Z,5.13
2023-04-21T10:52:59.156Z,4.85
2023-04-21T10:55:29.976Z,5.00
2023-04-21T10:57:59.080Z,5.85
2023-04-21T11:00:26.330Z,5.22
2023-04-21T11:03:00.230Z,5.55
2023-04-21T11:05:30.174Z,5.93
2023-04-21T11:08:12.750Z,5.10
2023-04-21T11:10:59.017Z,4.68
2023-04-21T11:13:33.364Z,4.93
2023-04-21T11:16:04.854Z,4.43
2023-04-21T11:18:41.294Z,5.13
2023-04-21T11:21:22.430Z,4.68
2023-04-21T11:23:54.692Z,4.35
2023-04-21T11:26:34.440Z,4.90
2023-04-21T11:29:07.291Z,5.15
2023-04-21T11:31:36.222Z,4.67
2023-04-21T11:34:06.899Z,5.70
2023-04-21T11:36:34.515Z,4.80
2023-04-21T11:39:08.066Z,4.87
2023-04-21T11:41:49.066Z,5.10
2023-04-21T11:44:33.405Z,5.28
2023-04-21T11:47:00.907Z,5.25
2023-04-21T11:49:29.463Z,4.50
2023-04-21T11:51:56.659Z,4.70
2023-04-21T11:54:24.360Z,4.73
2023-04-21T11:56:55.090Z,6.10
2023-04-21T11:59:26.505Z,5.27
2023-04-21T12:01:54.979Z,5.37
2023-04-21T12:04:23.749Z,4.70
2023-04-21T12:06:59.011Z,4.50
2023-04-21T12:09:28.183Z,4.70
2023-04-21T12:11:58.896Z,4.63
2023-04-21T12:14:29.344Z,4.90
2023-04-21T12:16:58.783Z,4.70
2023-04-21T12:19:37.927Z,5.13
2023-04-21T12:22:08.401Z,4.57
2023-04-21T12:24:36.827Z,4.60
2023-04-21T12:27:06.440Z,5.20
2023-04-21T12:29:38.341Z,4.73
2023-04-21T12:32:06.375Z,4.50
2023-04-21T12:34:34.273Z,5.57
2023-04-21T12:37:02.036Z,4.73
2023-04-21T12:39:30.118Z,4.90
2023-04-21T12:41:57.709Z,4.47
2023-04-21T12:44:26.499Z,4.40
2023-04-21T12:46:54.208Z,4.22
2023-04-21T12:49:21.126Z,4.63
2023-04-21T12:51:49.474Z,4.30
2023-04-21T12:54:17.611Z,4.87
2023-04-21T12:56:44.736Z,4.53
2023-04-21T12:59:12.000Z,4.68
2023-04-21T13:01:42.509Z,4.20
2023-04-21T13:04:10.162Z,4.40
2023-04-21T13:06:39.293Z,4.77
2023-04-21T13:09:06.302Z,4.17
2023-04-21T13:11:33.389Z,4.17
2023-04-21T13:14:00.562Z,4.13
2023-04-21T13:16:30.082Z,4.90
2023-04-21T13:18:59.001Z,3.90
2023-04-21T13:21:26.349Z,4.40
2023-04-21T13:23:53.391Z,4.30
2023-04-21T13:26:21.015Z,5.07
2023-04-21T13:28:48.271Z,4.20
2023-04-21T13:31:15.354Z,6.90
2023-04-21T13:33:42.461Z,4.03
2023-04-21T13:36:12.845Z,4.23
2023-04-21T13:38:40.766Z,4.43
2023-04-21T13:41:08.479Z,3.80
2023-04-21T13:43:35.695Z,4.40
2023-04-21T13:46:02.934Z,4.27
2023-04-21T13:48:30.050Z,4.23
2023-04-21T13:50:57.058Z,3.78
2023-04-21T13:53:25.479Z,4.35
2023-04-21T13:55:54.554Z,4.47
2023-04-21T13:58:22.053Z,4.13
2023-04-21T14:00:49.232Z,5.15
2023-04-21T14:03:16.687Z,4.85
2023-04-21T14:05:44.177Z,4.47
2023-04-21T14:08:11.464Z,4.70
2023-04-21T14:10:39.986Z,5.00
2023-04-21T14:13:07.056Z,4.53
2023-04-21T14:15:34.121Z,4.63
2023-04-21T14:18:01.293Z,5.22
2023-04-21T14:20:28.562Z,5.32
2023-04-21T14:22:55.620Z,5.27
2023-04-21T14:25:22.644Z,5.10
2023-04-21T14:27:50.953Z,5.20
2023-04-21T14:30:18.042Z,5.70
2023-04-21T14:32:47.663Z,5.53
2023-04-21T14:35:18.117Z,5.50
2023-04-21T14:37:45.200Z,5.00
2023-04-21T14:40:12.201Z,5.40
2023-04-21T14:42:39.111Z,5.07
2023-04-21T14:45:09.820Z,5.47
2023-04-21T14:47:37.955Z,5.20
2023-04-21T14:50:07.167Z,5.47
2023-04-21T14:52:34.459Z,5.50
2023-04-21T14:55:01.502Z,5.38
2023-04-21T14:57:28.480Z,5.57
2023-04-21T14:59:55.934Z,5.50
2023-04-21T15:02:24.566Z,5.75
2023-04-21T15:04:51.871Z,5.53
2023-04-21T15:07:23.902Z,5.00
2023-04-21T15:09:52.113Z,5.20
2023-04-21T15:12:19.260Z,6.23
2023-04-21T15:14:46.318Z,5.33
2023-04-21T15:17:13.544Z,5.53
2023-04-21T15:19:42.106Z,6.20
2023-04-21T15:22:09.259Z,5.10
2023-04-21T15:24:36.223Z,5.30
2023-04-21T15:27:07.167Z,5.60
2023-04-21T15:29:37.550Z,5.10
2023-04-21T15:32:04.932Z,5.93
2023-04-21T15:34:31.936Z,5.70
2023-04-21T15:37:00.327Z,5.90
2023-04-21T15:39:27.288Z,5.63
2023-04-21T15:41:55.078Z,5.53
2023-04-21T15:44:22.353Z,5.23
2023-04-21T15:46:50.533Z,5.73
2023-04-21T15:49:18.072Z,8.43
2023-04-21T15:51:46.117Z,6.90
2023-04-21T15:54:14.558Z,4.93
2023-04-21T15:56:41.493Z,5.77
2023-04-21T15:59:08.619Z,5.80
2023-04-21T16:01:36.001Z,5.77
2023-04-21T16:04:03.431Z,7.73
2023-04-21T16:06:31.244Z,6.17
2023-04-21T16:08:58.341Z,6.03
2023-04-21T16:11:28.035Z,5.30
2023-04-21T16:13:55.545Z,5.57
2023-04-21T16:16:22.720Z,5.43
2023-04-21T16:18:49.641Z,5.30
2023-04-21T16:21:16.673Z,5.70
2023-04-21T16:23:43.771Z,5.23
2023-04-21T16:26:10.736Z,4.97
2023-04-21T16:28:39.075Z,5.10
2023-04-21T16:31:06.275Z,4.63
2023-04-21T16:33:33.309Z,4.90
2023-04-21T16:36:00.389Z,4.80
2023-04-21T16:38:27.329Z,5.57
2023-04-21T16:40:54.312Z,5.03
2023-04-21T16:43:21.261Z,4.87
2023-04-21T16:45:49.607Z,5.43
2023-04-21T16:48:16.646Z,5.10
2023-04-21T16:50:45.131Z,5.03
2023-04-21T16:53:12.207Z,5.30
2023-04-21T16:55:39.536Z,5.30
2023-04-21T16:58:06.471Z,4.97
2023-04-21T17:00:33.542Z,5.30
2023-04-21T17:03:01.950Z,5.30
2023-04-21T17:05:28.998Z,5.50
2023-04-21T17:07:56.126Z,5.53
2023-04-21T17:10:23.154Z,5.40
2023-04-21T17:12:50.052Z,5.40
2023-04-21T17:15:17.147Z,4.93
2023-04-21T17:17:44.818Z,5.10
2023-04-21T17:20:14.408Z,5.03
2023-04-21T17:22:42.903Z,5.20
2023-04-21T17:25:11.193Z,5.43
2023-04-21T17:27:38.806Z,5.00
2023-04-21T17:30:08.933Z,5.53
2023-04-21T17:32:36.502Z,5.47
2023-04-21T17:35:05.634Z,5.57
2023-04-21T17:37:34.501Z,5.30
2023-04-21T17:40:02.891Z,6.40
2023-04-21T17:42:31.027Z,5.53
2023-04-21T17:44:57.935Z,5.37
2023-04-21T17:47:24.932Z,5.97
2023-04-21T17:49:52.075Z,4.87
2023-04-21T17:52:19.360Z,5.10
2023-04-21T17:54:47.690Z,5.90
2023-04-21T17:57:14.669Z,5.00
2023-04-21T17:59:41.974Z,5.80
2023-04-21T18:02:09.118Z,5.77
2023-04-21T18:04:36.867Z,6.13
2023-04-21T18:07:15.311Z,5.33
2023-04-21T18:09:49.831Z,5.87
2023-04-21T18:12:19.876Z,5.13
2023-04-21T18:14:46.813Z,5.43
2023-04-21T18:17:15.955Z,5.93
2023-04-21T18:19:44.212Z,5.40
2023-04-21T18:22:11.995Z,5.90
2023-04-21T18:24:39.899Z,6.80
2023-04-21T18:27:07.399Z,6.13
2023-04-21T18:29:37.280Z,6.60
2023-04-21T18:32:26.151Z,5.97
2023-04-21T18:34:56.349Z,6.43
2023-04-21T18:37:23.298Z,5.47
2023-04-21T18:39:50.202Z,6.00
2023-04-21T18:42:19.640Z,5.93
2023-04-21T18:44:48.223Z,5.53
2023-04-21T18:47:15.574Z,6.17
2023-04-21T18:49:42.640Z,6.10
2023-04-21T18:52:09.698Z,6.20
2023-04-21T18:54:36.968Z,5.50
2023-04-21T18:57:04.553Z,6.23
2023-04-21T18:59:31.892Z,5.90
2023-04-21T19:02:01.149Z,6.50
2023-04-21T19:04:28.252Z,6.20
2023-04-21T19:06:55.348Z,6.93
2023-04-21T19:09:22.767Z,6.43
2023-04-21T19:11:49.834Z,5.80
2023-04-21T19:14:16.732Z,5.77
2023-04-21T19:16:43.661Z,6.97
2023-04-21T19:19:12.226Z,5.97
2023-04-21T19:21:39.417Z,6.13
2023-04-21T19:24:06.808Z,6.37
2023-04-21T19:26:34.486Z,7.23
2023-04-21T19:29:01.876Z,6.80
2023-04-21T19:31:29.368Z,6.90
2023-04-21T19:33:56.576Z,5.87
2023-04-21T19:36:25.215Z,6.50
2023-04-21T19:38:52.550Z,7.10
2023-04-21T19:41:19.837Z,6.20
2023-04-21T19:43:47.103Z,7.20
2023-04-21T19:46:14.166Z,7.07
2023-04-21T19:48:42.714Z,7.03
2023-04-21T19:51:09.739Z,5.80
2023-04-21T19:53:37.972Z,6.67
2023-04-21T19:56:05.364Z,6.60
2023-04-21T19:58:40.438Z,6.40
2023-04-21T20:01:08.221Z,6.60
2023-04-21T20:03:35.451Z,6.77
2023-04-21T20:06:04.696Z,6.37
2023-04-21T20:08:31.813Z,6.97
2023-04-21T20:11:00.118Z,5.80
2023-04-21T20:13:27.148Z,6.40
2023-04-21T20:15:55.246Z,6.50
2023-04-21T20:18:22.177Z,6.40
2023-04-21T20:20:49.081Z,6.30
2023-04-21T20:23:16.377Z,7.50
2023-04-21T20:25:43.343Z,6.70
2023-04-21T20:28:11.832Z,6.23
2023-04-21T20:30:38.815Z,6.97
2023-04-21T20:33:05.802Z,6.97
2023-04-21T20:35:39.127Z,6.63
2023-04-21T20:38:07.860Z,7.30
2023-04-21T20:40:36.190Z,6.30
2023-04-21T20:43:06.205Z,6.93
2023-04-21T20:45:34.959Z,6.70
2023-04-21T20:48:01.884Z,7.10
2023-04-21T20:50:28.863Z,6.93
2023-04-21T20:52:56.632Z,6.90
2023-04-21T20:55:23.561Z,6.50
2023-04-21T20:57:51.022Z,6.40
2023-04-21T21:00:18.833Z,5.90
2023-04-21T21:02:47.324Z,6.73
2023-04-21T21:05:14.368Z,8.73
2023-04-21T21:07:41.356Z,6.63
2023-04-21T21:10:11.178Z,6.43
2023-04-21T21:12:38.227Z,6.33
2023-04-21T21:15:06.572Z,6.23
2023-04-21T21:17:33.830Z,6.53
2023-04-21T21:20:02.123Z,6.10
2023-04-21T21:22:29.064Z,6.03
2023-04-21T21:24:56.027Z,5.77
2023-04-21T21:27:23.679Z,6.10
2023-04-21T21:29:50.712Z,6.00
2023-04-21T21:32:17.771Z,6.10
2023-04-21T21:34:44.740Z,7.30
2023-04-21T21:37:13.014Z,6.73
2023-04-21T21:39:40.096Z,6.53
2023-04-21T21:42:07.118Z,6.53
2023-04-21T21:44:34.021Z,7.67
2023-04-21T21:47:01.218Z,6.87
2023-04-21T21:49:28.208Z,6.30
2023-04-21T21:51:55.274Z,6.83
2023-04-21T21:54:23.541Z,5.90
2023-04-21T21:56:50.585Z,6.73
2023-04-21T21:59:17.567Z,6.67
2023-04-21T22:01:44.711Z,6.13
2023-04-21T22:04:11.781Z,6.67
2023-04-21T22:06:39.061Z,6.57
2023-04-21T22:09:06.112Z,6.37
2023-04-21T22:11:34.638Z,6.50
2023-04-21T22:14:14.516Z,6.17
2023-04-21T22:16:48.585Z,6.20
2023-04-21T22:19:17.545Z,6.07
2023-04-21T22:21:44.518Z,6.37
2023-04-21T22:24:11.518Z,6.23
2023-04-21T22:26:39.930Z,6.60
2023-04-21T22:29:06.928Z,5.90
2023-04-21T22:31:34.036Z,6.50
2023-04-21T22:34:01.155Z,5.50
2023-04-21T22:36:28.213Z,5.77
2023-04-21T22:38:55.246Z,5.87
2023-04-21T22:41:22.407Z,5.67
2023-04-21T22:43:51.578Z,4.87
2023-04-21T22:46:19.090Z,5.87
2023-04-21T22:48:46.711Z,6.00
2023-04-21T22:51:14.359Z,5.77
2023-04-21T22:53:41.277Z,6.13
2023-04-21T22:56:08.270Z,5.73
2023-04-21T22:58:35.751Z,6.20
2023-04-21T23:01:04.087Z,6.27
2023-04-21T23:03:31.382Z,5.80
2023-04-21T23:05:58.902Z,6.67
2023-04-21T23:08:26.208Z,5.53
2023-04-21T23:10:53.235Z,5.67
2023-04-21T23:13:20.490Z,5.43
2023-04-21T23:15:47.357Z,5.47
2023-04-21T23:18:15.751Z,6.00
2023-04-21T23:20:42.716Z,5.23
2023-04-21T23:23:09.690Z,5.80
2023-04-21T23:25:36.635Z,5.73
2023-04-21T23:28:03.583Z,5.60
2023-04-21T23:30:30.579Z,5.10
2023-04-21T23:32:57.651Z,5.53
2023-04-21T23:35:26.168Z,5.63
2023-04-21T23:37:53.060Z,5.40
2023-04-21T23:40:20.174Z,5.67
2023-04-21T23:42:47.756Z,5.90
2023-04-21T23:45:15.522Z,6.07
2023-04-21T23:47:42.586Z,5.90
2023-04-21T23:50:11.025Z,5.60
2023-04-21T23:52:41.925Z,5.97
2023-04-21T23:55:11.873Z,5.97
2023-04-21T23:57:38.899Z,5.17
